Time;durP1;ratioP1;P1;durP2;ratioP2;P2;SDS_P1;SDS_P2;PMS_P1;PMS_P2;Temp;Humidity;BMP_temperature;BMP_pressure;BME280_temperature;BME280_humidity;BME280_pressure;Samples;Min_cycle;Max_cycle;Signal;HPM_P1;HPM_P2
2024/01/31 00:01:33;;;;;;;0.52;0.52;;;5.20;99.90;;;;;;5104755;27;20043;-76
2024/01/31 00:03:59;;;;;;;;;;;5.10;99.90;;;;;;5139086;27;20047;-76
2024/01/31 00:06:25;;;;;;;0.68;0.68;;;5.10;99.90;;;;;;5121170;27;19922;-76
2024/01/31 00:08:52;;;;;;;0.55;0.55;;;5.20;99.90;;;;;;5123074;27;20081;-77
2024/01/31 00:11:19;;;;;;;0.55;0.55;;;5.10;99.90;;;;;;5133643;27;20484;-78
2024/01/31 00:13:45;;;;;;;0.60;0.60;;;5.10;99.90;;;;;;5119026;27;20408;-77
2024/01/31 00:16:13;;;;;;;0.52;0.52;;;5.10;99.90;;;;;;5136374;27;20042;-77
2024/01/31 00:18:38;;;;;;;0.50;0.50;;;5.30;99.90;;;;;;5122716;27;20122;-77
2024/01/31 00:21:04;;;;;;;0.40;0.40;;;5.10;99.90;;;;;;5107016;27;20088;-77
2024/01/31 00:23:30;;;;;;;0.50;0.50;;;5.10;99.90;;;;;;5087782;27;20050;-77
2024/01/31 00:25:59;;;;;;;0.57;0.57;;;5.10;99.90;;;;;;5142059;27;20043;-77
2024/01/31 00:28:25;;;;;;;0.50;0.50;;;5.40;99.90;;;;;;5137257;27;20504;-77
2024/01/31 00:30:51;;;;;;;;;;;5.10;99.90;;;;;;5143407;27;20035;-77
2024/01/31 00:33:17;;;;;;;0.50;0.50;;;5.10;99.90;;;;;;5144657;27;19966;-76
2024/01/31 00:35:43;;;;;;;0.40;0.40;;;5.30;99.90;;;;;;5145118;27;20511;-77
2024/01/31 00:38:08;;;;;;;0.60;0.60;;;5.20;99.90;;;;;;5126810;27;20499;-77
2024/01/31 00:40:34;;;;;;;;;;;5.10;99.90;;;;;;5147848;27;20054;-77
2024/01/31 00:43:00;;;;;;;0.57;0.57;;;5.10;99.90;;;;;;5138701;27;19923;-77
2024/01/31 00:45:28;;;;;;;0.55;0.55;;;5.10;99.90;;;;;;5126563;27;20060;-77
2024/01/31 00:47:53;;;;;;;0.50;0.50;;;5.20;99.90;;;;;;5137599;27;20042;-77
2024/01/31 00:50:19;;;;;;;0.52;0.52;;;5.10;99.90;;;;;;5141938;27;20042;-77
2024/01/31 00:52:45;;;;;;;0.60;0.60;;;5.20;99.90;;;;;;5143262;27;20031;-77
2024/01/31 00:55:10;;;;;;;0.60;0.60;;;5.60;99.90;;;;;;5124785;27;20391;-77
2024/01/31 00:57:36;;;;;;;0.60;0.60;;;5.90;99.90;;;;;;5140531;27;20035;-77
2024/01/31 01:00:08;;;;;;;0.60;0.60;;;5.30;99.90;;;;;;5128315;27;20050;-77
2024/01/31 01:02:36;;;;;;;0.60;0.60;;;5.30;99.90;;;;;;5139602;27;20412;-77
2024/01/31 01:05:03;;;;;;;0.65;0.65;;;5.30;99.90;;;;;;5121628;27;20042;-77
2024/01/31 01:07:28;;;;;;;0.55;0.55;;;5.30;99.90;;;;;;5127714;27;20038;-77
2024/01/31 01:09:54;;;;;;;0.55;0.55;;;5.30;99.90;;;;;;5143561;27;20075;-77
2024/01/31 01:12:20;;;;;;;0.55;0.55;;;5.30;99.90;;;;;;5139012;27;20034;-77
2024/01/31 01:14:45;;;;;;;0.43;0.43;;;5.30;99.90;;;;;;5121975;27;20453;-77
2024/01/31 01:17:12;;;;;;;0.65;0.65;;;6.00;99.90;;;;;;5125481;27;20472;-77
2024/01/31 01:19:38;;;;;;;0.70;0.70;;;5.30;99.90;;;;;;5139544;27;20043;-77
2024/01/31 01:22:04;;;;;;;0.50;0.50;;;5.20;99.90;;;;;;5121942;27;20108;-77
2024/01/31 01:24:33;;;;;;;0.60;0.60;;;6.00;99.90;;;;;;5141036;27;20468;-77
2024/01/31 01:26:59;;;;;;;0.50;0.50;;;5.10;99.90;;;;;;5125654;27;20038;-77
2024/01/31 01:29:25;;;;;;;0.60;0.60;;;5.20;99.90;;;;;;5121906;27;20031;-77
2024/01/31 01:31:51;;;;;;;0.70;0.70;;;5.20;99.90;;;;;;5149313;27;20091;-76
2024/01/31 01:34:17;;;;;;;0.60;0.60;;;5.20;99.90;;;;;;5142960;27;20043;-76
2024/01/31 01:36:42;;;;;;;0.60;0.60;;;5.10;99.90;;;;;;5137019;27;20082;-77
2024/01/31 01:39:08;;;;;;;0.50;0.50;;;5.30;99.90;;;;;;5128270;27;20415;-77
2024/01/31 01:41:37;;;;;;;0.60;0.60;;;5.10;99.90;;;;;;5138478;27;20069;-77
2024/01/31 01:44:03;;;;;;;0.40;0.40;;;5.10;99.90;;;;;;5126087;27;20114;-76
2024/01/31 01:46:35;;;;;;;0.50;0.50;;;5.10;99.90;;;;;;5125960;27;20089;-76
2024/01/31 01:49:01;;;;;;;0.50;0.50;;;5.10;99.90;;;;;;5107798;27;20087;-76
2024/01/31 01:51:27;;;;;;;0.60;0.60;;;5.00;99.90;;;;;;5138956;27;20484;-76
2024/01/31 01:53:52;;;;;;;0.70;0.70;;;5.00;99.90;;;;;;5126257;27;20042;-78
2024/01/31 01:56:19;;;;;;;0.60;0.60;;;5.00;99.90;;;;;;5108435;27;20043;-76
2024/01/31 01:58:48;;;;;;;0.45;0.45;;;4.60;99.90;;;;;;5118434;27;20519;-76
2024/01/31 02:01:14;;;;;;;0.70;0.70;;;4.90;99.90;;;;;;5123367;27;20114;-76
2024/01/31 02:03:41;;;;;;;0.52;0.52;;;4.80;99.90;;;;;;5107554;27;20209;-77
2024/01/31 02:06:08;;;;;;;0.50;0.50;;;4.80;99.90;;;;;;5139838;27;20046;-77
2024/01/31 02:08:37;;;;;;;0.60;0.60;;;5.50;99.90;;;;;;5123639;27;20067;-77
2024/01/31 02:11:03;;;;;;;0.60;0.60;;;5.50;99.90;;;;;;5138897;27;20077;-77
2024/01/31 02:13:30;;;;;;;0.55;0.55;;;4.70;99.90;;;;;;5121593;27;20038;-76
2024/01/31 02:15:57;;;;;;;0.50;0.50;;;4.70;99.90;;;;;;5130165;27;20588;-77
2024/01/31 02:18:26;;;;;;;0.60;0.60;;;4.70;99.90;;;;;;5122423;27;20035;-76
2024/01/31 02:20:52;;;;;;;0.63;0.63;;;4.60;99.90;;;;;;5139172;27;20122;-76
2024/01/31 02:23:18;;;;;;;0.50;0.50;;;4.60;99.90;;;;;;5144443;27;20117;-76
2024/01/31 02:25:45;;;;;;;0.60;0.60;;;4.60;99.90;;;;;;5139220;27;20129;-76
2024/01/31 02:28:11;;;;;;;0.60;0.60;;;5.80;99.90;;;;;;5128332;27;20038;-77
2024/01/31 02:30:36;;;;;;;0.50;0.50;;;4.60;99.90;;;;;;5119836;27;20510;-78
2024/01/31 02:33:02;;;;;;;0.60;0.60;;;5.20;99.90;;;;;;5143493;27;20088;-76
2024/01/31 02:35:32;;;;;;;0.70;0.70;;;4.50;99.90;;;;;;5122668;27;20035;-77
2024/01/31 02:37:58;;;;;;;0.63;0.63;;;5.10;99.90;;;;;;5111866;27;20065;-77
2024/01/31 02:40:24;;;;;;;0.65;0.65;;;4.50;99.90;;;;;;5140440;27;20488;-77
2024/01/31 02:42:50;;;;;;;0.68;0.68;;;4.50;99.90;;;;;;5104942;27;20038;-77
2024/01/31 02:45:15;;;;;;;0.40;0.40;;;4.40;99.90;;;;;;5142474;27;20066;-76
2024/01/31 02:47:41;;;;;;;0.63;0.63;;;4.40;99.90;;;;;;5138815;27;20568;-77
2024/01/31 02:50:07;;;;;;;0.75;0.75;;;5.10;99.90;;;;;;5111135;27;20042;-77
2024/01/31 02:52:33;;;;;;;;;;;4.40;99.90;;;;;;5127928;27;20027;-76
2024/01/31 02:55:01;;;;;;;0.50;0.50;;;4.40;99.90;;;;;;5146660;27;19968;-77
2024/01/31 02:57:28;;;;;;;0.80;0.80;;;4.40;99.90;;;;;;5120260;27;20500;-77
2024/01/31 02:59:54;;;;;;;0.50;0.50;;;4.30;99.90;;;;;;5090649;27;20041;-77
2024/01/31 03:02:19;;;;;;;0.50;0.50;;;4.30;99.90;;;;;;5104549;27;20034;-78
2024/01/31 03:04:45;;;;;;;0.50;0.50;;;3.80;99.90;;;;;;5104680;27;20031;-77
2024/01/31 03:07:11;;;;;;;0.60;0.60;;;4.40;99.90;;;;;;5140867;27;20035;-78
2024/01/31 03:09:38;;;;;;;0.60;0.60;;;4.40;99.90;;;;;;5137066;27;20137;-77
2024/01/31 03:12:07;;;;;;;0.50;0.50;;;4.70;99.90;;;;;;5122148;27;20122;-77
2024/01/31 03:14:34;;;;;;;0.60;0.60;;;4.50;99.90;;;;;;5119382;27;20049;-78
2024/01/31 03:17:00;;;;;;;0.70;0.70;;;4.50;99.90;;;;;;5142679;27;20100;-76
2024/01/31 03:19:29;;;;;;;0.40;0.40;;;5.20;99.90;;;;;;5142548;27;20066;-77
2024/01/31 03:21:58;;;;;;;1.13;1.13;;;5.10;99.90;;;;;;5138762;27;20055;-76
2024/01/31 03:24:24;;;;;;;0.55;0.55;;;4.50;99.90;;;;;;5117880;27;20080;-77
2024/01/31 03:26:50;;;;;;;0.65;0.65;;;5.50;99.90;;;;;;5140079;27;20031;-78
2024/01/31 03:29:16;;;;;;;0.70;0.70;;;4.50;99.90;;;;;;5136085;27;20549;-76
2024/01/31 03:31:41;;;;;;;0.50;0.50;;;5.20;99.90;;;;;;5139436;27;20131;-77
2024/01/31 03:34:07;;;;;;;0.90;0.90;;;4.30;99.90;;;;;;5089720;27;20047;-77
2024/01/31 03:36:33;;;;;;;0.80;0.80;;;4.40;99.90;;;;;;5142893;27;20392;-77
2024/01/31 03:39:00;;;;;;;0.60;0.60;;;5.00;99.90;;;;;;5139969;27;20097;-77
2024/01/31 03:41:26;;;;;;;;;;;4.30;99.90;;;;;;5141994;27;20039;-77
2024/01/31 03:43:52;;;;;;;0.60;0.60;;;4.40;99.90;;;;;;5123240;27;20403;-78
2024/01/31 03:46:21;;;;;;;1.10;1.10;;;4.40;99.90;;;;;;5136594;27;20131;-78
2024/01/31 03:48:48;;;;;;;0.70;0.70;;;4.40;99.90;;;;;;5140181;27;20074;-77
2024/01/31 03:51:20;;;;;;;0.52;0.52;;;4.50;99.90;;;;;;5124625;27;20477;-77
2024/01/31 03:53:47;;;;;;;0.65;0.65;;;4.40;99.90;;;;;;5117644;27;20088;-77
2024/01/31 03:56:13;;;;;;;0.57;0.57;;;4.50;99.90;;;;;;5137297;27;20043;-77
2024/01/31 03:58:39;;;;;;;0.95;0.95;;;4.40;99.90;;;;;;5138474;27;20107;-78
2024/01/31 04:01:06;;;;;;;0.60;0.60;;;4.40;99.90;;;;;;5123807;27;20050;-77
2024/01/31 04:03:31;;;;;;;0.60;0.60;;;4.40;99.90;;;;;;5141253;27;20476;-78
2024/01/31 04:05:57;;;;;;;0.60;0.60;;;4.50;99.90;;;;;;5144653;27;20071;-77
2024/01/31 04:08:23;;;;;;;0.50;0.50;;;4.40;99.90;;;;;;5123203;27;20110;-76
2024/01/31 04:10:49;;;;;;;0.63;0.63;;;5.30;99.90;;;;;;5143334;27;20054;-77
2024/01/31 04:13:14;;;;;;;0.60;0.60;;;4.30;99.90;;;;;;5105802;27;20062;-79
2024/01/31 04:15:40;;;;;;;0.70;0.70;;;5.10;99.90;;;;;;5146621;27;20038;-77
2024/01/31 04:18:07;;;;;;;0.65;0.65;;;4.20;99.90;;;;;;5132277;27;20049;-76
2024/01/31 04:20:39;;;;;;;0.50;0.50;;;4.10;99.90;;;;;;5125686;27;20035;-76
2024/01/31 04:23:05;;;;;;;0.60;0.60;;;3.90;99.90;;;;;;5128489;27;20487;-77
2024/01/31 04:25:31;;;;;;;;;;;3.80;99.90;;;;;;5138600;27;20031;-76
2024/01/31 04:27:58;;;;;;;0.52;0.52;;;4.70;99.90;;;;;;5144658;27;19926;-77
2024/01/31 04:30:24;;;;;;;0.60;0.60;;;3.80;99.90;;;;;;5121569;27;20138;-76
2024/01/31 04:32:50;;;;;;;0.63;0.63;;;;;;;;;;5140530;27;20035;-75
2024/01/31 04:35:16;;;;;;;;;;;3.50;99.90;;;;;;5143071;27;20400;-77
2024/01/31 04:37:42;;;;;;;0.60;0.60;;;3.40;99.90;;;;;;5133496;27;19925;-76
2024/01/31 04:40:08;;;;;;;0.68;0.68;;;4.10;99.90;;;;;;5122371;27;20042;-75
2024/01/31 04:42:38;;;;;;;0.60;0.60;;;3.30;99.90;;;;;;5126966;27;20047;-76
2024/01/31 04:45:05;;;;;;;0.70;0.70;;;3.20;99.90;;;;;;5094068;27;20044;-76
2024/01/31 04:47:31;;;;;;;3.95;1.30;;;3.10;99.90;;;;;;5146839;27;20088;-76
2024/01/31 04:49:58;;;;;;;0.50;0.50;;;4.00;99.90;;;;;;5142995;27;20480;-76
2024/01/31 04:52:25;;;;;;;0.70;0.70;;;3.10;99.90;;;;;;5116237;27;20113;-76
2024/01/31 04:54:50;;;;;;;;;;;3.00;99.90;;;;;;5143085;27;20119;-75
2024/01/31 04:57:17;;;;;;;0.80;0.80;;;3.00;99.90;;;;;;5141706;27;20368;-76
2024/01/31 04:59:43;;;;;;;0.60;0.60;;;3.00;99.90;;;;;;5120324;27;20029;-77
2024/01/31 05:02:09;;;;;;;0.70;0.70;;;3.10;99.90;;;;;;5139410;27;20043;-76
2024/01/31 05:04:40;;;;;;;0.60;0.60;;;3.60;99.90;;;;;;5122615;27;20103;-76
2024/01/31 05:07:06;;;;;;;0.65;0.65;;;3.00;99.90;;;;;;5123010;27;20143;-76
2024/01/31 05:09:32;;;;;;;0.70;0.70;;;3.60;99.90;;;;;;5126653;27;20051;-76
2024/01/31 05:11:57;;;;;;;0.50;0.50;;;2.90;99.90;;;;;;5137673;27;20119;-76
2024/01/31 05:14:23;;;;;;;0.57;0.57;;;2.90;99.90;;;;;;5124589;27;20031;-76
2024/01/31 05:16:49;;;;;;;0.75;0.75;;;3.60;99.90;;;;;;5107178;27;20117;-76
2024/01/31 05:19:16;;;;;;;0.70;0.70;;;3.90;99.90;;;;;;5139599;27;20103;-75
2024/01/31 05:21:50;;;;;;;0.60;0.60;;;3.00;99.90;;;;;;5138396;27;20050;-76
2024/01/31 05:24:17;;;;;;;0.63;0.63;;;3.10;99.90;;;;;;5122796;27;20040;-76
2024/01/31 05:26:45;;;;;;;0.70;0.70;;;3.10;99.90;;;;;;5139519;27;20023;-76
2024/01/31 05:29:10;;;;;;;0.50;0.50;;;3.20;99.90;;;;;;5141041;27;20138;-76
2024/01/31 05:31:36;;;;;;;0.60;0.60;;;3.30;99.90;;;;;;5125053;27;20142;-75
2024/01/31 05:34:02;;;;;;;;;;;3.20;99.90;;;;;;5104390;27;20042;-76
2024/01/31 05:36:28;;;;;;;0.60;0.60;;;3.90;99.90;;;;;;5138095;27;19946;-76
2024/01/31 05:38:54;;;;;;;0.63;0.63;;;3.30;99.90;;;;;;5124000;27;20090;-76
2024/01/31 05:41:20;;;;;;;0.70;0.70;;;3.30;99.90;;;;;;5142270;27;20034;-77
2024/01/31 05:43:46;;;;;;;0.57;0.57;;;3.30;99.90;;;;;;5140782;27;20471;-76
2024/01/31 05:46:18;;;;;;;0.50;0.50;;;3.40;99.90;;;;;;5123302;27;20031;-76
2024/01/31 05:48:47;;;;;;;0.60;0.60;;;3.30;99.90;;;;;;5127111;27;20050;-76
2024/01/31 05:51:13;;;;;;;0.60;0.60;;;4.00;99.90;;;;;;5144227;27;21523;-78
2024/01/31 05:53:39;;;;;;;0.60;0.60;;;3.40;99.90;;;;;;5120383;27;20157;-76
2024/01/31 05:56:05;;;;;;;0.60;0.60;;;3.40;99.90;;;;;;5139611;27;20042;-77
2024/01/31 05:58:31;;;;;;;0.60;0.60;;;3.70;99.90;;;;;;5127999;27;20046;-76
2024/01/31 06:00:57;;;;;;;0.70;0.70;;;4.90;99.90;;;;;;5143468;27;20053;-77
2024/01/31 06:03:24;;;;;;;0.52;0.52;;;4.50;99.90;;;;;;5125459;27;20445;-77
2024/01/31 06:05:51;;;;;;;0.60;0.60;;;3.60;99.90;;;;;;5103393;27;20556;-76
2024/01/31 06:08:18;;;;;;;0.65;0.65;;;4.80;99.90;;;;;;5142700;27;20055;-77
2024/01/31 06:10:46;;;;;;;0.60;0.60;;;3.70;99.90;;;;;;5101599;27;20042;-77
2024/01/31 06:13:14;;;;;;;0.60;0.60;;;3.70;99.90;;;;;;5138275;27;20043;-77
2024/01/31 06:15:40;;;;;;;0.47;0.47;;;3.70;99.90;;;;;;5119809;27;20393;-77
2024/01/31 06:18:06;;;;;;;0.77;0.77;;;3.80;99.90;;;;;;5140316;27;20065;-76
2024/01/31 06:20:32;;;;;;;0.60;0.60;;;3.80;99.90;;;;;;5117470;27;20145;-75
2024/01/31 06:22:57;;;;;;;0.60;0.60;;;3.70;99.90;;;;;;5141559;27;20051;-77
2024/01/31 06:25:24;;;;;;;0.65;0.65;;;4.10;99.90;;;;;;5121549;27;20031;-77
2024/01/31 06:27:51;;;;;;;0.70;0.70;;;5.20;99.90;;;;;;5140733;27;20046;-77
2024/01/31 06:30:30;;;;;;;0.70;0.70;;;3.90;99.90;;;;;;5121692;27;20524;-77
2024/01/31 06:33:05;;;;;;;0.60;0.60;;;3.90;99.90;;;;;;5140577;27;20045;-77
2024/01/31 06:35:34;;;;;;;1.05;1.05;;;3.90;99.90;;;;;;5121508;27;20480;-77
2024/01/31 06:38:00;;;;;;;0.50;0.50;;;4.30;99.90;;;;;;5138540;27;20233;-77
2024/01/31 06:40:26;;;;;;;0.50;0.50;;;5.20;99.90;;;;;;5125826;27;20122;-76
2024/01/31 06:42:52;;;;;;;0.43;0.43;;;4.10;99.90;;;;;;5129263;27;20539;-76
2024/01/31 06:45:18;;;;;;;0.75;0.75;;;4.00;99.90;;;;;;5122735;27;20041;-76
2024/01/31 06:47:45;;;;;;;0.63;0.63;;;4.30;99.90;;;;;;5143871;27;20066;-78
2024/01/31 06:50:13;;;;;;;0.50;0.50;;;4.00;99.90;;;;;;5123423;27;20080;-78
2024/01/31 06:52:44;;;;;;;0.60;0.60;;;4.10;99.90;;;;;;5126459;27;20048;-76
2024/01/31 06:55:14;;;;;;;1.02;1.02;;;5.70;99.90;;;;;;5125207;27;20038;-76
2024/01/31 06:57:42;;;;;;;0.63;0.63;;;4.10;99.90;;;;;;5142045;27;20110;-76
2024/01/31 07:00:11;;;;;;;0.60;0.60;;;4.70;99.90;;;;;;5142333;27;20827;-77
2024/01/31 07:02:38;;;;;;;0.52;0.52;;;4.20;99.90;;;;;;5127101;27;20103;-76
2024/01/31 07:05:04;;;;;;;0.57;0.57;;;4.30;99.90;;;;;;5127374;27;20046;-75
2024/01/31 07:07:33;;;;;;;0.50;0.50;;;4.30;99.90;;;;;;5147160;27;20034;-75
2024/01/31 07:09:59;;;;;;;0.80;0.80;;;5.00;99.90;;;;;;5147490;27;20487;-76
2024/01/31 07:12:25;;;;;;;1.45;1.45;;;4.40;99.90;;;;;;5131118;27;20110;-75
2024/01/31 07:14:50;;;;;;;0.60;0.60;;;4.40;99.90;;;;;;5127843;27;20070;-76
2024/01/31 07:17:16;;;;;;;0.60;0.60;;;4.50;99.90;;;;;;5145878;27;20047;-76
2024/01/31 07:19:43;;;;;;;0.68;0.68;;;4.50;99.90;;;;;;5146458;27;20506;-75
2024/01/31 07:22:09;;;;;;;0.60;0.60;;;4.60;99.90;;;;;;5126872;27;20070;-76
2024/01/31 07:24:41;;;;;;;0.60;0.60;;;4.50;99.90;;;;;;5148308;27;20027;-77
2024/01/31 07:27:06;;;;;;;0.50;0.50;;;4.50;99.90;;;;;;5143770;27;20042;-76
2024/01/31 07:29:32;;;;;;;0.60;0.60;;;5.00;99.90;;;;;;5146400;27;20044;-76
2024/01/31 07:32:06;;;;;;;0.60;0.60;;;4.50;99.90;;;;;;5146599;27;20078;-77
2024/01/31 07:34:31;;;;;;;0.82;0.82;;;4.60;99.90;;;;;;5148435;27;20077;-76
2024/01/31 07:36:57;;;;;;;0.57;0.57;;;4.60;99.90;;;;;;5147594;27;20042;-77
2024/01/31 07:39:23;;;;;;;0.55;0.55;;;4.60;99.90;;;;;;5152888;27;20078;-77
2024/01/31 07:41:48;;;;;;;0.57;0.57;;;4.60;99.90;;;;;;5131351;27;20031;-79
2024/01/31 07:44:18;;;;;;;0.52;0.52;;;4.50;99.90;;;;;;5131868;27;20065;-78
2024/01/31 07:46:47;;;;;;;0.40;0.40;;;4.50;99.90;;;;;;5149741;27;20225;-77
2024/01/31 07:49:13;;;;;;;0.70;0.70;;;4.50;99.90;;;;;;5152417;27;20054;-77
2024/01/31 07:51:42;;;;;;;0.60;0.60;;;5.00;99.90;;;;;;5150745;27;20061;-77
2024/01/31 07:54:10;;;;;;;0.70;0.70;;;4.50;99.90;;;;;;5149598;27;20050;-79
2024/01/31 07:56:40;;;;;;;0.70;0.70;;;4.50;99.90;;;;;;5127973;27;20067;-77
2024/01/31 07:59:06;;;;;;;0.40;0.40;;;4.50;99.90;;;;;;5126670;27;20043;-78
2024/01/31 08:01:36;;;;;;;0.60;0.60;;;4.50;99.90;;;;;;5144309;27;20090;-76
2024/01/31 08:04:03;;;;;;;0.70;0.70;;;4.50;99.90;;;;;;5122955;27;20035;-76
2024/01/31 08:06:29;;;;;;;0.60;0.60;;;4.50;99.90;;;;;;5150816;27;20058;-78
2024/01/31 08:08:55;;;;;;;16.20;1.50;;;4.50;99.90;;;;;;5129473;27;20073;-77
2024/01/31 08:11:21;;;;;;;0.65;0.65;;;5.30;99.90;;;;;;5143983;27;20052;-77
2024/01/31 08:13:53;;;;;;;0.70;0.70;;;4.70;99.90;;;;;;5124386;27;20039;-76
2024/01/31 08:16:19;;;;;;;0.60;0.60;;;5.10;99.90;;;;;;5131875;27;20053;-75
2024/01/31 08:18:46;;;;;;;0.55;0.55;;;4.60;99.90;;;;;;5131505;27;20073;-78
2024/01/31 08:21:20;;;;;;;0.63;0.63;;;4.90;99.90;;;;;;5152545;27;20065;-78
2024/01/31 08:23:46;;;;;;;0.68;0.68;;;4.60;99.90;;;;;;5153641;27;20047;-78
2024/01/31 08:26:17;;;;;;;0.70;0.70;;;4.60;99.90;;;;;;5152988;27;20042;-77
2024/01/31 08:28:43;;;;;;;0.60;0.60;;;4.70;99.90;;;;;;5147675;27;20118;-77
2024/01/31 08:31:09;;;;;;;0.50;0.50;;;4.70;99.90;;;;;;5147162;27;20053;-77
2024/01/31 08:33:37;;;;;;;0.60;0.60;;;4.70;99.90;;;;;;5115351;27;20043;-77
2024/01/31 08:36:03;;;;;;;0.68;0.65;;;4.80;99.90;;;;;;5146746;27;20547;-77
2024/01/31 08:38:29;;;;;;;1.23;1.08;;;4.80;99.90;;;;;;5133010;27;20129;-76
2024/01/31 08:41:02;;;;;;;0.77;0.77;;;4.90;99.90;;;;;;5131462;27;20051;-76
2024/01/31 08:43:29;;;;;;;0.50;0.50;;;4.90;99.90;;;;;;5130347;27;20498;-77
2024/01/31 08:45:55;;;;;;;0.70;0.70;;;5.00;99.90;;;;;;5150638;27;20053;-78
2024/01/31 08:48:21;;;;;;;;;;;5.00;99.90;;;;;;5132210;27;21174;-77
2024/01/31 08:50:48;;;;;;;0.50;0.50;;;5.00;99.90;;;;;;5147124;27;20309;-78
2024/01/31 08:53:13;;;;;;;0.55;0.55;;;5.00;99.90;;;;;;5127532;27;20047;-77
2024/01/31 08:55:49;;;;;;;1.05;1.00;;;5.00;99.90;;;;;;5153883;27;20035;-77
2024/01/31 08:58:15;;;;;;;0.50;0.50;;;5.10;99.90;;;;;;5131923;27;20054;-76
2024/01/31 09:00:41;;;;;;;0.70;0.70;;;6.00;99.90;;;;;;5145874;27;20038;-77
2024/01/31 09:03:07;;;;;;;0.52;0.52;;;5.20;99.90;;;;;;5120013;27;20080;-77
2024/01/31 09:05:32;;;;;;;0.50;0.50;;;5.20;99.90;;;;;;5150233;27;20043;-77
2024/01/31 09:07:59;;;;;;;0.60;0.60;;;5.20;99.90;;;;;;5152705;27;20395;-76
2024/01/31 09:10:26;;;;;;;0.47;0.47;;;5.20;99.90;;;;;;5134046;27;20576;-77
2024/01/31 09:12:53;;;;;;;0.93;0.93;;;5.30;99.90;;;;;;5112350;27;20046;-76
2024/01/31 09:15:19;;;;;;;0.60;0.60;;;5.30;99.90;;;;;;5143148;27;20494;-77
2024/01/31 09:17:47;;;;;;;0.65;0.65;;;5.40;99.90;;;;;;5141523;27;20046;-77
2024/01/31 09:20:14;;;;;;;0.40;0.40;;;5.40;99.90;;;;;;5143148;27;20066;-78
2024/01/31 09:22:41;;;;;;;0.90;0.90;;;5.40;99.90;;;;;;5146638;27;20492;-77
2024/01/31 09:25:15;;;;;;;0.60;0.60;;;5.50;99.90;;;;;;5149560;27;20039;-77
2024/01/31 09:27:44;;;;;;;0.45;0.45;;;5.50;99.90;;;;;;5148227;27;20040;-76
2024/01/31 09:30:10;;;;;;;0.63;0.63;;;5.60;99.90;;;;;;5130231;27;20119;-76
2024/01/31 09:32:36;;;;;;;0.47;0.47;;;5.60;99.90;;;;;;5147515;27;20127;-77
2024/01/31 09:35:01;;;;;;;0.68;0.68;;;5.60;99.90;;;;;;5128860;27;20043;-76
2024/01/31 09:37:27;;;;;;;0.50;0.50;;;5.60;99.90;;;;;;5129468;27;20087;-76
2024/01/31 09:39:55;;;;;;;0.50;0.50;;;5.70;99.90;;;;;;5148247;27;20368;-78
2024/01/31 09:42:27;;;;;;;0.70;0.70;;;5.70;99.90;;;;;;5148288;27;20084;-77
2024/01/31 09:44:57;;;;;;;;;;;6.50;99.90;;;;;;5146484;27;20488;-76
2024/01/31 09:47:27;;;;;;;0.75;0.75;;;5.70;99.90;;;;;;5147610;27;19919;-79
2024/01/31 09:49:56;;;;;;;0.60;0.60;;;5.70;99.90;;;;;;5131825;27;20099;-77
2024/01/31 09:52:28;;;;;;;0.60;0.60;;;5.70;99.90;;;;;;5147593;27;20060;-76
2024/01/31 09:55:00;;;;;;;1.60;1.17;;;5.80;99.90;;;;;;5130735;27;20043;-76
2024/01/31 09:57:27;;;;;;;1.45;1.45;;;5.80;99.90;;;;;;5147135;27;20050;-75
2024/01/31 10:00:07;;;;;;;1.33;1.23;;;5.80;99.90;;;;;;5149989;27;20031;-76
2024/01/31 10:02:35;;;;;;;0.95;0.95;;;5.80;99.90;;;;;;5140773;27;20043;-77
2024/01/31 10:05:00;;;;;;;0.93;0.93;;;5.90;99.90;;;;;;5146374;27;20077;-76
2024/01/31 10:07:30;;;;;;;0.75;0.75;;;5.90;99.90;;;;;;5150540;27;20040;-76
2024/01/31 10:09:56;;;;;;;0.70;0.70;;;5.90;99.90;;;;;;5125456;27;20479;-77
2024/01/31 10:12:29;;;;;;;0.50;0.50;;;5.90;99.90;;;;;;5138781;27;20571;-75
2024/01/31 10:15:00;;;;;;;0.60;0.60;;;5.90;99.90;;;;;;5139519;27;20044;-77
2024/01/31 10:17:27;;;;;;;0.70;0.70;;;6.80;99.90;;;;;;5134828;27;20074;-75
2024/01/31 10:20:07;;;;;;;0.50;0.50;;;5.90;99.90;;;;;;5140586;27;20054;-77
2024/01/31 10:22:34;;;;;;;1.15;0.85;;;6.00;99.90;;;;;;5148096;27;20047;-76
2024/01/31 10:25:04;;;;;;;0.50;0.50;;;6.10;99.90;;;;;;5148512;27;20557;-77
2024/01/31 10:27:29;;;;;;;0.40;0.40;;;6.10;99.90;;;;;;5145742;27;20042;-77
2024/01/31 10:29:55;;;;;;;0.50;0.50;;;6.10;99.90;;;;;;5144910;27;20043;-76
2024/01/31 10:32:33;;;;;;;2.90;1.00;;;6.10;99.90;;;;;;5142238;27;20049;-77
2024/01/31 10:35:03;;;;;;;0.85;0.85;;;6.20;99.90;;;;;;5149009;27;20042;-78
2024/01/31 10:37:30;;;;;;;1.15;1.15;;;6.20;99.90;;;;;;5127488;27;20495;-77
2024/01/31 10:39:57;;;;;;;1.08;1.08;;;6.20;99.90;;;;;;5148261;27;20038;-80
2024/01/31 10:42:26;;;;;;;0.60;0.60;;;6.20;99.90;;;;;;5112287;27;20039;-76
2024/01/31 10:44:54;;;;;;;1.30;1.23;;;6.30;99.90;;;;;;5136750;27;20076;-79
2024/01/31 10:47:20;;;;;;;3.17;2.97;;;6.30;99.90;;;;;;5144393;27;20030;-79
2024/01/31 10:49:45;;;;;;;0.40;0.40;;;6.40;99.90;;;;;;5143374;27;20057;-76
2024/01/31 10:52:24;;;;;;;0.50;0.50;;;6.40;99.90;;;;;;5140451;27;20053;-76
2024/01/31 10:54:55;;;;;;;0.55;0.55;;;6.50;99.90;;;;;;5122367;27;20441;-78
2024/01/31 10:57:22;;;;;;;0.50;0.50;;;6.50;99.90;;;;;;5138789;27;20080;-78
2024/01/31 10:59:58;;;;;;;0.52;0.52;;;6.60;99.90;;;;;;5141013;27;20042;-76
2024/01/31 11:02:33;;;;;;;0.70;0.70;;;6.60;99.90;;;;;;5159473;27;20078;-77
2024/01/31 11:05:15;;;;;;;3.30;0.90;;;6.50;99.90;;;;;;5142872;27;20519;-77
2024/01/31 11:07:47;;;;;;;0.90;0.90;;;6.50;99.90;;;;;;5142774;27;20559;-78
2024/01/31 11:10:37;;;;;;;0.82;0.82;;;6.60;99.90;;;;;;5130549;27;20042;-78
2024/01/31 11:13:17;;;;;;;1.38;0.88;;;6.60;99.90;;;;;;5136958;27;20555;-77
2024/01/31 11:15:45;;;;;;;0.47;0.47;;;6.60;99.90;;;;;;5137714;27;20437;-78
2024/01/31 11:18:16;;;;;;;0.65;0.65;;;6.60;99.90;;;;;;5137657;27;20038;-78
2024/01/31 11:20:50;;;;;;;0.60;0.60;;;6.70;99.90;;;;;;5134910;27;20034;-77
2024/01/31 11:23:30;;;;;;;0.77;0.77;;;6.70;99.90;;;;;;5137192;27;20050;-79
2024/01/31 11:26:00;;;;;;;0.75;0.75;;;6.70;99.90;;;;;;5138378;27;20050;-76
2024/01/31 11:28:30;;;;;;;0.75;0.75;;;6.70;99.90;;;;;;5138854;27;20047;-78
2024/01/31 11:30:56;;;;;;;0.75;0.75;;;6.60;99.90;;;;;;5139643;27;20406;-77
2024/01/31 11:33:22;;;;;;;0.52;0.52;;;6.70;99.90;;;;;;5139553;27;20072;-79
2024/01/31 11:35:48;;;;;;;0.63;0.63;;;6.70;99.90;;;;;;5122303;27;20026;-78
2024/01/31 11:38:15;;;;;;;0.85;0.85;;;6.80;99.90;;;;;;5140079;27;20039;-79
2024/01/31 11:40:42;;;;;;;0.50;0.50;;;6.80;99.90;;;;;;5123261;27;20490;-78
2024/01/31 11:43:09;;;;;;;0.95;0.95;;;6.80;99.90;;;;;;5119657;27;20488;-79
2024/01/31 11:45:35;;;;;;;0.70;0.70;;;6.80;99.90;;;;;;5117118;27;20046;-78
2024/01/31 11:48:07;;;;;;;2.28;1.30;;;6.90;99.90;;;;;;5146901;27;20045;-78
2024/01/31 11:50:32;;;;;;;1.55;1.25;;;6.90;99.90;;;;;;5144999;27;20043;-75
2024/01/31 11:52:59;;;;;;;0.45;0.45;;;6.80;99.90;;;;;;5148242;27;20046;-78
2024/01/31 11:55:28;;;;;;;0.60;0.60;;;6.80;99.90;;;;;;5142472;27;20054;-77
2024/01/31 11:58:08;;;;;;;0.68;0.68;;;6.90;99.90;;;;;;5139826;27;20042;-77
2024/01/31 12:00:34;;;;;;;0.40;0.40;;;6.90;99.90;;;;;;5139062;27;20126;-77
2024/01/31 12:03:00;;;;;;;0.45;0.45;;;6.90;99.90;;;;;;5140267;27;20464;-79
2024/01/31 12:05:26;;;;;;;;;;;6.80;99.90;;;;;;5143532;27;20050;-76
2024/01/31 12:07:59;;;;;;;0.70;0.70;;;6.90;99.90;;;;;;5136875;27;20002;-77
2024/01/31 12:10:28;;;;;;;0.40;0.40;;;6.90;99.90;;;;;;5139273;27;20433;-78
2024/01/31 12:12:57;;;;;;;0.40;0.40;;;6.90;99.90;;;;;;5140538;27;20499;-77
2024/01/31 12:15:23;;;;;;;0.70;0.70;;;6.90;99.90;;;;;;5108895;27;20501;-80
2024/01/31 12:18:00;;;;;;;0.52;0.52;;;6.80;99.90;;;;;;5136130;27;20061;-77
2024/01/31 12:20:32;;;;;;;0.57;0.57;;;6.90;99.90;;;;;;5138223;27;20058;-79
2024/01/31 12:22:59;;;;;;;0.50;0.50;;;6.80;99.90;;;;;;5117780;27;20050;-77
2024/01/31 12:25:27;;;;;;;0.70;0.70;;;6.90;99.90;;;;;;5103724;27;20030;-78
2024/01/31 12:27:55;;;;;;;1.10;1.10;;;6.80;99.90;;;;;;5105280;27;20039;-78
2024/01/31 12:30:22;;;;;;;0.52;0.52;;;6.80;99.90;;;;;;5126463;27;20055;-79
2024/01/31 12:32:52;;;;;;;0.50;0.50;;;6.80;99.90;;;;;;5144525;27;20487;-79
2024/01/31 12:35:18;;;;;;;0.55;0.55;;;6.90;99.90;;;;;;5127493;27;20100;-80
2024/01/31 12:37:49;;;;;;;0.60;0.60;;;6.80;99.90;;;;;;5141594;27;20525;-77
2024/01/31 12:40:15;;;;;;;0.63;0.63;;;6.80;99.90;;;;;;5149093;27;20043;-76
2024/01/31 12:42:45;;;;;;;0.47;0.47;;;6.80;99.90;;;;;;5152904;27;20041;-83
2024/01/31 12:45:11;;;;;;;0.57;0.57;;;6.80;99.90;;;;;;5158164;27;20043;-81
2024/01/31 12:47:37;;;;;;;;;;;6.80;99.90;;;;;;5161128;27;20061;-82
2024/01/31 12:50:03;;;;;;;0.63;0.63;;;6.80;99.90;;;;;;5158153;27;20360;-81
2024/01/31 12:52:30;;;;;;;0.50;0.50;;;6.80;99.90;;;;;;5145381;27;20694;-83
2024/01/31 12:54:56;;;;;;;0.60;0.60;;;6.80;99.90;;;;;;5140680;27;20045;-82
2024/01/31 12:57:22;;;;;;;0.60;0.60;;;6.80;99.90;;;;;;5140019;27;20534;-81
2024/01/31 12:59:47;;;;;;;0.95;0.63;;;6.90;99.90;;;;;;5142072;27;20039;-84
2024/01/31 13:02:14;;;;;;;0.60;0.60;;;6.90;99.90;;;;;;5137575;27;20057;-83